Main page
METAR-TAF:

METAR-TAF

Airports :

Eleusina, Greece

latitude: 38-04N, longitude: 023-33E, elevation: 44 m

Current weather observation

The report was made 37 minutes ago, at 07:20 UTC
Wind 10 kt from the North/Northwest
Temperature 19°C
Humidity 26%
Pressure 1021 hPa
Visibility 10 km or more
no clouds below 1500 m and no cumulonimbus

METAR: LGEL 240720Z 33010KT CAVOK 19/M01 Q1021

Time: 09:57 (07:57 UTC)

Forecast

The report was made 2 hours and 57 minutes ago, at 05:00 UTC
Forecast valid from 24 at 06 UTC to 25 at 06 UTC
Wind 12 kt from the North/Northwest
Visibility 10 km or more
Few clouds at a height of 2500 ft
Temporary
from 24 at 06 UTC to 24 at 12 UTC
Wind 12 kt from the North/Northwest with gusts up to 22 kt

TAF: LGEL 240500Z 2406/2506 34012KT 9999 FEW025 TEMPO 2406/2412 34012G22KT

Weather observations and forecasts of more than 4000 airports (METAR and TAF reports).

The available stations are represented by yellow and red dots on the map.

Hover mouse over dot to see the name of the station.

Then click to see weather observations and forecasts.

To change the map : click on the green buttons with a black cross to zoom in, on the green button with a dash to zoom out, or on the green arrows for adjacent maps.


METAR-TAF: